createdAt,value
2022-10-30T00:00:05.704Z,60.40
2022-10-30T00:02:39.108Z,60.30
2022-10-30T00:05:06.628Z,60.30
2022-10-30T00:07:34.209Z,60.30
2022-10-30T00:10:01.296Z,60.20
2022-10-30T00:12:28.343Z,60.20
2022-10-30T00:14:56.415Z,60.10
2022-10-30T00:17:23.638Z,60.20
2022-10-30T00:19:50.562Z,60.10
2022-10-30T00:22:17.726Z,60.10
2022-10-30T00:24:44.836Z,60.10
2022-10-30T00:27:11.879Z,60.10
2022-10-30T00:29:38.899Z,60.20
2022-10-30T00:32:06.001Z,60.20
2022-10-30T00:34:33.206Z,60.10
2022-10-30T00:37:00.137Z,60.20
2022-10-30T00:39:27.211Z,60.30
2022-10-30T00:41:54.880Z,60.30
2022-10-30T00:44:45.250Z,60.30
2022-10-30T00:47:40.785Z,60.30
2022-10-30T00:50:19.478Z,60.40
2022-10-30T00:52:57.085Z,60.30
2022-10-30T00:55:32.309Z,60.40
2022-10-30T00:58:03.572Z,60.40
2022-10-30T01:00:31.192Z,60.50
2022-10-30T01:02:59.061Z,60.50
2022-10-30T01:05:32.200Z,60.50
2022-10-30T01:07:59.667Z,60.60
2022-10-30T01:10:27.094Z,60.60
2022-10-30T01:12:56.442Z,60.70
2022-10-30T01:15:35.859Z,60.80
2022-10-30T01:18:41.535Z,60.80
2022-10-30T01:21:26.666Z,60.90
2022-10-30T01:24:26.707Z,60.90
2022-10-30T01:27:15.669Z,61.00
2022-10-30T01:30:08.702Z,61.00
2022-10-30T01:32:53.612Z,61.00
2022-10-30T01:35:49.047Z,61.00
2022-10-30T01:38:39.604Z,61.00
2022-10-30T01:41:06.818Z,61.00
2022-10-30T01:43:35.348Z,60.90
2022-10-30T01:46:21.259Z,61.00
2022-10-30T01:49:10.931Z,61.00
2022-10-30T01:51:51.764Z,61.20
2022-10-30T01:54:45.550Z,61.20
2022-10-30T01:57:27.264Z,61.20
2022-10-30T02:00:00.161Z,61.20
2022-10-30T02:02:27.456Z,61.30
2022-10-30T02:04:55.781Z,61.40
2022-10-30T02:07:23.013Z,61.30
2022-10-30T02:09:53.796Z,61.50
2022-10-30T02:12:22.027Z,61.40
2022-10-30T02:14:54.727Z,61.50
2022-10-30T02:17:22.090Z,61.50
2022-10-30T02:19:50.215Z,61.40
2022-10-30T02:22:18.365Z,61.50
2022-10-30T02:24:45.779Z,61.40
2022-10-30T02:27:13.864Z,61.30
2022-10-30T02:29:40.950Z,61.30
2022-10-30T02:32:08.110Z,61.40
2022-10-30T02:34:36.879Z,61.40
2022-10-30T02:37:03.990Z,61.40
2022-10-30T02:39:31.282Z,61.40
2022-10-30T02:41:58.424Z,61.40
2022-10-30T02:44:25.400Z,61.40
2022-10-30T02:46:52.366Z,61.50
2022-10-30T02:49:19.383Z,61.50
2022-10-30T02:51:46.587Z,61.60
2022-10-30T02:54:13.636Z,61.60
2022-10-30T02:56:41.645Z,61.60
2022-10-30T02:59:08.835Z,62.50
2022-10-30T03:01:35.940Z,61.70
2022-10-30T03:04:04.150Z,61.80
2022-10-30T03:06:31.230Z,61.70
2022-10-30T03:08:59.110Z,61.80
2022-10-30T03:11:26.392Z,62.00
2022-10-30T03:13:55.646Z,61.90
2022-10-30T03:16:25.074Z,62.10
2022-10-30T03:18:52.859Z,62.10
2022-10-30T03:21:24.160Z,62.20
2022-10-30T03:23:51.670Z,62.30
2022-10-30T03:26:20.682Z,62.30
2022-10-30T03:29:05.445Z,62.40
2022-10-30T03:31:33.158Z,62.60
2022-10-30T03:34:10.399Z,62.50
2022-10-30T03:36:37.478Z,62.50
2022-10-30T03:39:04.973Z,62.50
2022-10-30T03:41:33.312Z,62.80
2022-10-30T03:44:06.755Z,62.60
2022-10-30T03:46:34.047Z,62.50
2022-10-30T03:49:15.805Z,62.50
2022-10-30T03:51:43.470Z,62.50
2022-10-30T03:54:10.680Z,62.60
2022-10-30T03:56:40.519Z,62.50
2022-10-30T03:59:13.850Z,62.50
2022-10-30T04:01:43.341Z,62.50
2022-10-30T04:04:10.501Z,62.50
2022-10-30T04:06:37.394Z,62.50
2022-10-30T04:09:04.975Z,62.40
2022-10-30T04:11:37.232Z,62.50
2022-10-30T04:14:04.409Z,62.50
2022-10-30T04:16:32.740Z,62.40
2022-10-30T04:19:01.377Z,62.40
2022-10-30T04:21:28.436Z,62.60
2022-10-30T04:23:57.400Z,62.40
2022-10-30T04:26:28.206Z,62.40
2022-10-30T04:28:55.252Z,62.30
2022-10-30T04:31:22.230Z,62.30
2022-10-30T04:33:50.947Z,62.30
2022-10-30T04:36:18.689Z,62.20
2022-10-30T04:38:46.266Z,62.00
2022-10-30T04:41:13.685Z,61.90
2022-10-30T04:43:52.172Z,61.90
2022-10-30T04:46:19.327Z,61.80
2022-10-30T04:48:46.397Z,61.80
2022-10-30T04:51:14.302Z,61.70
2022-10-30T04:53:42.372Z,61.80
2022-10-30T04:56:12.827Z,61.80
2022-10-30T04:58:40.798Z,61.90
2022-10-30T05:01:09.297Z,61.90
2022-10-30T05:03:37.666Z,62.00
2022-10-30T05:06:25.674Z,62.10
2022-10-30T05:08:53.527Z,62.10
2022-10-30T05:11:34.350Z,62.00
2022-10-30T05:14:01.253Z,61.90
2022-10-30T05:16:28.311Z,62.00
2022-10-30T05:18:58.604Z,62.10
2022-10-30T05:21:26.940Z,62.00
2022-10-30T05:23:54.455Z,62.10
2022-10-30T05:26:23.079Z,62.10
2022-10-30T05:28:51.594Z,62.20
2022-10-30T05:31:19.217Z,62.20
2022-10-30T05:34:09.318Z,62.30
2022-10-30T05:36:38.900Z,62.40
2022-10-30T05:39:06.331Z,62.40
2022-10-30T05:41:37.008Z,62.60
2022-10-30T05:44:04.475Z,62.60
2022-10-30T05:46:33.141Z,62.70
2022-10-30T05:49:11.628Z,62.70
2022-10-30T05:51:40.574Z,62.80
2022-10-30T05:54:11.223Z,62.90
2022-10-30T05:56:47.221Z,63.10
2022-10-30T05:59:14.260Z,63.10
2022-10-30T06:04:12.825Z,63.10
2022-10-30T06:06:39.826Z,63.10
2022-10-30T06:09:07.877Z,63.10
2022-10-30T06:11:43.385Z,63.10
2022-10-30T06:14:11.672Z,63.30
2022-10-30T06:16:45.822Z,63.20
2022-10-30T06:19:31.610Z,63.30
2022-10-30T06:22:11.333Z,63.30
2022-10-30T06:24:46.909Z,63.30
2022-10-30T06:27:37.322Z,63.30
2022-10-30T06:30:04.738Z,63.40
2022-10-30T06:32:31.788Z,63.50
2022-10-30T06:35:02.460Z,63.60
2022-10-30T06:37:31.299Z,63.70
2022-10-30T06:40:02.663Z,63.90
2022-10-30T06:42:51.047Z,64.10
2022-10-30T06:45:29.176Z,64.10
2022-10-30T06:47:56.919Z,64.00
2022-10-30T06:50:24.709Z,63.80
2022-10-30T06:52:54.898Z,63.70
2022-10-30T06:55:23.341Z,63.50
2022-10-30T06:58:10.672Z,63.50
2022-10-30T07:01:01.635Z,63.40
2022-10-30T07:03:47.493Z,63.40
2022-10-30T07:06:14.750Z,63.40
2022-10-30T07:08:42.901Z,63.40
2022-10-30T07:11:13.029Z,63.30
2022-10-30T07:13:58.951Z,63.30
2022-10-30T07:16:48.107Z,63.40
2022-10-30T07:19:16.131Z,63.40
2022-10-30T07:21:44.119Z,63.50
2022-10-30T07:24:11.328Z,63.60
2022-10-30T07:26:50.492Z,63.50
2022-10-30T07:29:31.634Z,63.60
2022-10-30T07:32:13.644Z,63.80
2022-10-30T07:34:52.175Z,64.20
2022-10-30T07:37:48.773Z,64.50
2022-10-30T07:40:17.442Z,65.00
2022-10-30T07:43:01.916Z,66.00
2022-10-30T07:45:38.135Z,65.70
2022-10-30T07:48:23.862Z,65.90
2022-10-30T07:51:15.506Z,65.40
2022-10-30T07:53:43.096Z,64.30
2022-10-30T07:56:10.329Z,63.40
2022-10-30T07:58:52.750Z,62.60
2022-10-30T08:01:41.016Z,61.90
2022-10-30T08:04:21.258Z,61.40
2022-10-30T08:06:48.356Z,61.10
2022-10-30T08:09:15.460Z,60.50
2022-10-30T08:11:43.807Z,60.00
2022-10-30T08:14:10.952Z,59.90
2022-10-30T08:16:37.942Z,59.80
2022-10-30T08:19:04.986Z,59.90
2022-10-30T08:21:32.132Z,59.80
2022-10-30T08:24:04.022Z,59.70
2022-10-30T08:26:33.408Z,59.40
2022-10-30T08:29:00.628Z,59.20
2022-10-30T08:31:29.823Z,59.20
2022-10-30T08:34:03.055Z,59.60
2022-10-30T08:36:42.790Z,59.80
2022-10-30T08:39:12.377Z,59.70
2022-10-30T08:41:44.799Z,59.80
2022-10-30T08:44:12.785Z,59.30
2022-10-30T08:46:58.324Z,58.90
2022-10-30T08:49:25.577Z,58.40
2022-10-30T08:51:56.198Z,57.30
2022-10-30T08:54:23.083Z,55.50
2022-10-30T08:56:50.754Z,54.10
2022-10-30T08:59:21.097Z,52.20
2022-10-30T09:01:51.251Z,49.90
2022-10-30T09:04:18.643Z,49.10
2022-10-30T09:06:54.352Z,47.50
2022-10-30T09:09:40.200Z,47.50
2022-10-30T09:12:08.534Z,46.70
2022-10-30T09:14:41.591Z,46.50
2022-10-30T09:17:10.532Z,45.00
2022-10-30T09:19:38.630Z,44.30
2022-10-30T09:22:08.280Z,43.50
2022-10-30T09:24:40.312Z,43.00
2022-10-30T09:27:45.668Z,43.50
2022-10-30T09:30:15.336Z,42.80
2022-10-30T09:32:44.981Z,42.20
2022-10-30T09:35:16.713Z,41.00
2022-10-30T09:37:45.034Z,40.90
2022-10-30T09:40:40.119Z,41.40
2022-10-30T09:44:26.705Z,41.00
2022-10-30T09:47:23.600Z,40.30
2022-10-30T09:50:12.148Z,40.90
2022-10-30T09:52:54.433Z,40.40
2022-10-30T09:55:40.372Z,41.20
2022-10-30T09:58:10.301Z,39.30
2022-10-30T10:00:46.157Z,40.20
2022-10-30T10:03:47.600Z,40.20
2022-10-30T10:06:35.799Z,40.50
2022-10-30T10:09:20.565Z,40.40
2022-10-30T10:12:35.106Z,40.30
2022-10-30T10:15:11.508Z,40.50
2022-10-30T10:17:42.098Z,41.10
2022-10-30T10:20:30.538Z,40.90
2022-10-30T10:23:00.166Z,40.60
2022-10-30T10:25:30.490Z,40.10
2022-10-30T10:28:29.010Z,39.50
2022-10-30T10:31:21.266Z,39.00
2022-10-30T10:34:16.434Z,38.80
2022-10-30T10:37:09.746Z,38.90
2022-10-30T10:40:14.562Z,38.40
2022-10-30T10:43:13.761Z,38.80
2022-10-30T10:45:40.877Z,38.90
2022-10-30T10:48:26.301Z,39.80
2022-10-30T10:50:57.535Z,40.30
2022-10-30T10:53:33.906Z,38.90
2022-10-30T10:56:01.651Z,39.40
2022-10-30T10:58:31.722Z,39.30
2022-10-30T11:00:59.649Z,39.10
2022-10-30T11:03:48.522Z,39.60
2022-10-30T11:06:28.921Z,39.10
2022-10-30T11:09:14.467Z,39.40
2022-10-30T11:11:41.672Z,39.10
2022-10-30T11:14:28.451Z,39.20
2022-10-30T11:17:13.580Z,39.10
2022-10-30T11:19:40.610Z,38.80
2022-10-30T11:22:28.636Z,37.90
2022-10-30T11:24:55.821Z,37.90
2022-10-30T11:27:30.818Z,37.40
2022-10-30T11:30:02.287Z,37.80
2022-10-30T11:32:32.332Z,37.80
2022-10-30T11:35:12.620Z,38.00
2022-10-30T11:37:42.276Z,37.70
2022-10-30T11:40:12.444Z,38.30
2022-10-30T11:43:02.156Z,38.50
2022-10-30T11:45:31.544Z,38.50
2022-10-30T11:48:02.732Z,38.50
2022-10-30T11:50:32.547Z,38.50
2022-10-30T11:53:16.595Z,38.50
2022-10-30T11:55:48.636Z,39.00
2022-10-30T11:58:46.548Z,39.10
2022-10-30T12:01:23.715Z,39.30
2022-10-30T12:03:51.897Z,39.60
2022-10-30T12:06:25.304Z,40.00
2022-10-30T12:09:15.803Z,40.00
2022-10-30T12:11:44.607Z,40.20
2022-10-30T12:17:20.595Z,40.50
2022-10-30T12:19:54.051Z,40.90
2022-10-30T12:22:35.320Z,41.10
2022-10-30T12:25:06.908Z,41.10
2022-10-30T12:27:38.346Z,41.30
2022-10-30T12:30:25.394Z,41.70
2022-10-30T12:36:21.306Z,42.00
2022-10-30T12:39:05.427Z,42.20
2022-10-30T12:41:45.051Z,42.40
2022-10-30T12:44:30.782Z,42.60
2022-10-30T12:47:21.035Z,42.40
2022-10-30T12:49:52.557Z,42.30
2022-10-30T12:52:24.730Z,42.60
2022-10-30T12:54:57.885Z,42.60
2022-10-30T12:57:28.701Z,42.60
2022-10-30T13:00:10.060Z,42.70
2022-10-30T13:02:50.689Z,42.60
2022-10-30T13:05:31.608Z,42.80
2022-10-30T13:08:17.234Z,42.70
2022-10-30T13:10:50.814Z,43.00
2022-10-30T13:13:24.640Z,43.20
2022-10-30T13:15:55.130Z,42.90
2022-10-30T13:18:24.604Z,42.80
2022-10-30T13:21:04.597Z,43.00
2022-10-30T13:23:51.028Z,43.20
2022-10-30T13:26:44.278Z,43.30
2022-10-30T13:29:28.120Z,43.20
2022-10-30T13:32:32.799Z,43.70
2022-10-30T13:35:29.708Z,43.70
2022-10-30T13:38:06.579Z,43.80
2022-10-30T13:40:58.945Z,43.80
2022-10-30T13:43:29.992Z,43.90
2022-10-30T13:46:10.111Z,43.80
2022-10-30T13:48:45.549Z,43.80
2022-10-30T13:51:45.575Z,43.90
2022-10-30T13:54:23.471Z,43.90
2022-10-30T13:56:53.465Z,44.00
2022-10-30T13:59:42.732Z,44.10
2022-10-30T14:02:48.984Z,44.40
2022-10-30T14:06:09.564Z,44.40
2022-10-30T14:08:53.656Z,44.60
2022-10-30T14:11:21.021Z,44.70
2022-10-30T14:14:30.256Z,44.60
2022-10-30T14:17:14.384Z,44.50
2022-10-30T14:20:20.489Z,44.60
2022-10-30T14:23:20.075Z,44.80
2022-10-30T14:26:02.339Z,44.90
2022-10-30T14:28:37.580Z,45.00
2022-10-30T14:31:06.592Z,45.00
2022-10-30T14:33:47.157Z,45.20
2022-10-30T14:36:14.491Z,45.40
2022-10-30T14:38:41.801Z,45.50
2022-10-30T14:41:31.688Z,45.60
2022-10-30T14:44:23.720Z,45.90
2022-10-30T14:47:00.787Z,46.10
2022-10-30T14:49:46.291Z,46.10
2022-10-30T14:52:40.379Z,46.40
2022-10-30T14:55:40.158Z,46.60
2022-10-30T14:58:07.267Z,47.20
2022-10-30T15:00:35.019Z,46.90
2022-10-30T15:03:18.961Z,47.10
2022-10-30T15:06:01.645Z,47.70
2022-10-30T15:08:34.617Z,47.90
2022-10-30T15:11:17.652Z,47.90
2022-10-30T15:13:56.176Z,48.60
2022-10-30T15:16:27.285Z,48.60
2022-10-30T15:19:07.759Z,48.70
2022-10-30T15:21:52.785Z,49.40
2022-10-30T15:24:26.914Z,49.60
2022-10-30T15:27:00.457Z,49.40
2022-10-30T15:29:34.109Z,49.80
2022-10-30T15:32:02.450Z,50.10
2022-10-30T15:34:31.087Z,50.40
2022-10-30T15:36:58.060Z,50.40
2022-10-30T15:39:25.843Z,50.80
2022-10-30T15:42:02.623Z,51.00
2022-10-30T15:44:36.489Z,51.40
2022-10-30T15:47:05.818Z,51.60
2022-10-30T15:49:34.220Z,51.60
2022-10-30T15:52:15.786Z,51.90
2022-10-30T15:54:46.217Z,52.30
2022-10-30T15:58:01.106Z,52.20
2022-10-30T16:00:58.531Z,52.90
2022-10-30T16:03:26.833Z,53.40
2022-10-30T16:06:30.662Z,52.90
2022-10-30T16:08:58.140Z,53.70
2022-10-30T16:11:27.451Z,53.20
2022-10-30T16:13:54.677Z,53.40
2022-10-30T16:16:31.878Z,53.60
2022-10-30T16:19:02.791Z,53.90
2022-10-30T16:21:31.279Z,53.80
2022-10-30T16:24:04.566Z,53.80
2022-10-30T16:26:34.957Z,54.00
2022-10-30T16:29:17.105Z,54.20
2022-10-30T16:31:49.877Z,54.60
2022-10-30T16:34:31.852Z,54.40
2022-10-30T16:37:00.870Z,54.70
2022-10-30T16:39:28.991Z,54.60
2022-10-30T16:42:01.022Z,54.70
2022-10-30T16:44:31.024Z,55.10
2022-10-30T16:47:19.408Z,55.90
2022-10-30T16:49:57.374Z,55.60
2022-10-30T16:52:33.371Z,55.60
2022-10-30T16:55:04.835Z,55.80
2022-10-30T16:57:35.966Z,55.90
2022-10-30T17:00:05.567Z,55.90
2022-10-30T17:02:50.079Z,56.00
2022-10-30T17:05:34.755Z,56.00
2022-10-30T17:08:09.848Z,56.50
2022-10-30T17:10:37.112Z,56.30
2022-10-30T17:13:32.780Z,56.40
2022-10-30T17:16:12.138Z,56.60
2022-10-30T17:18:39.837Z,56.50
2022-10-30T17:21:13.888Z,56.40
2022-10-30T17:23:52.692Z,56.60
2022-10-30T17:26:20.730Z,56.70
2022-10-30T17:28:48.558Z,56.70
2022-10-30T17:31:18.604Z,56.80
2022-10-30T17:33:47.541Z,57.50
2022-10-30T17:36:14.525Z,56.80
2022-10-30T17:38:41.609Z,56.90
2022-10-30T17:41:13.928Z,57.00
2022-10-30T17:43:52.977Z,57.00
2022-10-30T17:46:20.830Z,57.30
2022-10-30T17:48:48.509Z,57.30
2022-10-30T17:51:17.034Z,57.70
2022-10-30T17:53:47.247Z,58.10
2022-10-30T17:56:21.675Z,58.60
2022-10-30T17:58:48.926Z,58.60
2022-10-30T18:01:22.705Z,58.50
2022-10-30T18:03:52.041Z,58.60
2022-10-30T18:06:21.901Z,58.70
2022-10-30T18:08:50.831Z,58.60
2022-10-30T18:11:20.437Z,58.40
2022-10-30T18:13:48.600Z,58.40
2022-10-30T18:16:17.046Z,58.50
2022-10-30T18:18:45.579Z,58.30
2022-10-30T18:21:17.548Z,58.30
2022-10-30T18:23:53.051Z,58.20
2022-10-30T18:26:25.860Z,58.20
2022-10-30T18:28:53.378Z,58.10
2022-10-30T18:31:23.738Z,58.10
2022-10-30T18:33:51.061Z,57.90
2022-10-30T18:36:21.110Z,57.90
2022-10-30T18:38:49.039Z,57.80
2022-10-30T18:41:36.506Z,57.90
2022-10-30T18:44:04.421Z,57.70
2022-10-30T18:46:33.038Z,57.60
2022-10-30T18:49:00.279Z,57.80
2022-10-30T18:51:28.607Z,57.80
2022-10-30T18:53:57.340Z,57.80
2022-10-30T18:56:27.787Z,57.90
2022-10-30T18:59:00.666Z,57.90
2022-10-30T19:01:30.915Z,58.00
2022-10-30T19:04:01.082Z,58.10
2022-10-30T19:06:28.289Z,58.00
2022-10-30T19:08:55.969Z,58.10
2022-10-30T19:11:25.281Z,58.20
2022-10-30T19:13:54.563Z,58.20
2022-10-30T19:16:25.540Z,58.00
2022-10-30T19:18:54.172Z,58.10
2022-10-30T19:21:25.490Z,58.20
2022-10-30T19:23:53.042Z,58.10
2022-10-30T19:26:20.312Z,58.10
2022-10-30T19:28:48.499Z,58.20
2022-10-30T19:31:18.983Z,58.30
2022-10-30T19:33:51.412Z,58.30
2022-10-30T19:36:33.798Z,58.40
2022-10-30T19:39:08.515Z,58.70
2022-10-30T19:41:36.985Z,58.60
2022-10-30T19:44:04.433Z,58.30
2022-10-30T19:46:31.410Z,58.40
2022-10-30T19:48:59.554Z,58.30
2022-10-30T19:51:28.588Z,58.30
2022-10-30T19:53:55.866Z,58.30
2022-10-30T19:56:22.842Z,58.20
2022-10-30T19:58:50.178Z,58.50
2022-10-30T20:01:17.370Z,58.60
2022-10-30T20:03:44.499Z,58.50
2022-10-30T20:06:14.960Z,58.50
2022-10-30T20:08:41.972Z,58.60
2022-10-30T20:11:09.321Z,58.70
2022-10-30T20:13:37.286Z,58.60
2022-10-30T20:16:05.644Z,58.50
2022-10-30T20:18:35.856Z,58.60
2022-10-30T20:21:05.608Z,58.50
2022-10-30T20:23:32.620Z,58.40
2022-10-30T20:26:11.948Z,58.40
2022-10-30T20:28:41.601Z,58.40
2022-10-30T20:31:12.834Z,58.30
2022-10-30T20:33:40.057Z,58.20
2022-10-30T20:36:07.294Z,58.10
2022-10-30T20:38:35.018Z,58.20
2022-10-30T20:41:04.009Z,58.20
2022-10-30T20:43:36.045Z,58.20
2022-10-30T20:46:05.026Z,58.20
2022-10-30T20:48:32.678Z,58.20
2022-10-30T20:51:01.799Z,58.40
2022-10-30T20:53:29.818Z,58.40
2022-10-30T20:55:56.880Z,58.40
2022-10-30T20:58:24.556Z,58.50
2022-10-30T21:00:55.672Z,58.60
2022-10-30T21:03:22.821Z,58.80
2022-10-30T21:05:56.105Z,59.40
2022-10-30T21:08:23.682Z,58.90
2022-10-30T21:10:50.629Z,59.00
2022-10-30T21:13:17.556Z,59.00
2022-10-30T21:15:45.085Z,59.00
2022-10-30T21:18:13.808Z,59.10
2022-10-30T21:20:41.247Z,59.10
2022-10-30T21:23:08.873Z,59.00
2022-10-30T21:25:36.398Z,59.10
2022-10-30T21:28:04.799Z,59.10
2022-10-30T21:30:32.766Z,59.10
2022-10-30T21:33:00.238Z,59.00
2022-10-30T21:35:28.115Z,59.00
2022-10-30T21:37:55.164Z,59.00
2022-10-30T21:40:22.205Z,59.00
2022-10-30T21:42:49.358Z,59.10
2022-10-30T21:45:16.466Z,59.00
2022-10-30T21:47:44.574Z,59.00
2022-10-30T21:50:12.761Z,59.00
2022-10-30T21:52:40.737Z,59.00
2022-10-30T21:55:08.739Z,58.90
2022-10-30T21:57:36.313Z,59.00
2022-10-30T22:00:06.354Z,58.90
2022-10-30T22:02:35.917Z,58.90
2022-10-30T22:05:04.903Z,58.80
2022-10-30T22:07:32.120Z,58.80
2022-10-30T22:09:59.913Z,58.60
2022-10-30T22:12:27.006Z,58.60
2022-10-30T22:14:53.991Z,58.50
2022-10-30T22:17:21.039Z,58.50
2022-10-30T22:19:48.222Z,59.10
2022-10-30T22:22:15.306Z,58.30
2022-10-30T22:24:42.449Z,58.30
2022-10-30T22:27:09.483Z,58.30
2022-10-30T22:29:36.585Z,58.30
2022-10-30T22:32:03.549Z,58.20
2022-10-30T22:34:30.501Z,58.20
2022-10-30T22:36:57.531Z,58.20
2022-10-30T22:39:24.894Z,58.20
2022-10-30T22:41:51.946Z,58.20
2022-10-30T22:44:19.703Z,58.20
2022-10-30T22:46:46.712Z,58.20
2022-10-30T22:49:13.615Z,58.20
2022-10-30T22:51:40.724Z,58.80
2022-10-30T22:54:11.270Z,58.00
2022-10-30T22:56:39.656Z,58.00
2022-10-30T22:59:14.246Z,57.90
2022-10-30T23:01:42.864Z,57.80
2022-10-30T23:04:11.394Z,57.70
2022-10-30T23:06:39.377Z,57.70
2022-10-30T23:09:11.458Z,57.70
2022-10-30T23:11:39.349Z,57.70
2022-10-30T23:14:06.606Z,57.70
2022-10-30T23:16:33.446Z,57.70
2022-10-30T23:19:01.355Z,57.70
2022-10-30T23:21:31.065Z,57.70
2022-10-30T23:23:58.751Z,57.70
2022-10-30T23:26:27.845Z,57.60
2022-10-30T23:28:56.398Z,57.50
2022-10-30T23:31:25.239Z,57.40
2022-10-30T23:33:54.075Z,57.40
2022-10-30T23:36:21.548Z,57.30
2022-10-30T23:38:56.479Z,57.30
2022-10-30T23:41:25.828Z,57.30
2022-10-30T23:43:57.383Z,57.20
2022-10-30T23:46:24.888Z,57.10
2022-10-30T23:48:52.413Z,57.10
2022-10-30T23:51:19.806Z,57.10
2022-10-30T23:53:47.104Z,57.10
2022-10-30T23:56:14.456Z,57.00
2022-10-30T23:58:45.752Z,57.00
